Latest Weather Observations for Cessnock Airport

IDN60801

Issued at 10:32 pm EDT Monday 30 January 2023 (issued every 10 minutes, with the page automatically refreshed every 10 minutes)

About weather observations | Map of weather stations | Latest weather observations for NSW | Other Formats
Station Details ID: 061260 Name: CESSNOCK AIRPORT AWS Lat: -32.79 Lon: 151.34 Height: 66.53 m
Data from the previous 72 hours. | See also: Recent months at Cessnock Airport
Date/Time
EDT
Temp
°C
App
Temp
°C
Dew
Point
°C
Rel
Hum
%
Delta-T
°C
Wind Press
QNH
hPa
Press
MSL
hPa
Rain since
9am
mm
Dir  Spd
km/h
Gust
km/h
Spd
kts
Gust
kts
30/10:30pm 21.9 25.1 21.7 99 0.1 SW 7 11 4 6 1005.8 1005.5 17.2
30/10:00pm 22.2 25.8 22.0 99 0.1 SW 6 11 3 6 1006.0 1005.7 13.6
30/09:30pm 22.4 26.1 22.2 99 0.1 SSW 6 7 3 4 1006.0 1005.7 10.4
30/09:00pm 22.4 27.2 22.2 99 0.1 CALM 0 0 0 0 1005.6 1005.3 10.4
30/08:30pm 22.6 27.5 22.4 99 0.1 CALM 0 0 0 0 1005.8 1005.5 10.2
30/08:00pm 22.7 27.6 22.4 98 0.2 CALM 0 0 0 0 1005.9 1005.6 9.4
30/07:30pm 22.9 27.7 22.2 96 0.5 CALM 0 0 0 0 1005.8 1005.5 9.4
30/07:00pm 23.2 28.0 22.2 94 0.7 CALM 0 0 0 0 1005.7 1005.4 9.4
30/06:30pm 23.6 28.4 22.2 92 0.9 CALM 0 0 0 0 1005.6 1005.3 9.4
30/06:00pm 23.2 27.9 22.0 93 0.8 CALM 0 0 0 0 1005.8 1005.5 9.4
30/05:30pm 23.4 28.2 22.2 93 0.8 CALM 0 0 0 0 1005.7 1005.4 9.4
30/05:00pm 23.3 26.8 22.1 93 0.8 ESE 7 9 4 5 1006.0 1005.7 9.4
30/04:30pm 23.3 27.4 22.3 94 0.7 SSE 4 9 2 5 1006.3 1006.0 9.4
30/04:00pm 22.7 27.3 21.7 94 0.7 CALM 0 0 0 0 1007.3 1007.0 9.2
30/03:30pm 22.6 26.5 21.9 96 0.5 SE 4 7 2 4 1007.2 1006.9 9.2
30/03:00pm 22.2 26.6 21.4 95 0.5 CALM 0 0 0 0 1008.0 1007.7 9.2
30/02:30pm 22.3 26.8 21.5 95 0.5 CALM 0 0 0 0 1008.6 1008.3 8.6
30/02:00pm 22.4 25.1 21.4 94 0.7 NNW 9 11 5 6 1008.7 1008.4 8.4
30/01:30pm 22.8 25.5 21.3 91 1.0 N 9 13 5 7 1008.9 1008.6 7.8
30/01:00pm 22.7 25.0 20.6 88 1.4 N 9 11 5 6 1009.0 1008.7 7.6
30/12:30pm 22.6 25.1 21.1 91 1.0 N 9 13 5 7 1009.6 1009.3 7.6
30/12:00pm 21.7 24.4 20.7 94 0.7 NNE 7 9 4 5 1010.2 1009.9 7.4
30/11:30am 21.7 24.8 21.4 98 0.2 NNE 7 9 4 5 1010.9 1010.6 6.6
30/11:00am 21.6 26.0 21.4 99 0.1 CALM 0 0 0 0 1011.4 1011.1 5.4
30/10:30am 21.6 26.0 21.4 99 0.1 CALM 0 0 0 0 1011.8 1011.5 4.6
30/10:00am 21.5 25.9 21.3 99 0.1 CALM 0 0 0 0 1012.2 1011.9 1.8
30/09:30am 21.3 24.2 21.1 99 0.1 SSE 7 11 4 6 1011.9 1011.6 0.8
30/09:00am 21.4 24.0 21.2 99 0.1 SW 9 15 5 8 1012.2 1011.9 6.4
30/08:30am 21.3 23.8 21.1 99 0.1 SSE 9 19 5 10 1011.4 1011.1 6.4
30/08:00am 21.3 23.8 21.1 99 0.1 SSE 9 17 5 9 1010.9 1010.6 5.6
30/07:30am 21.2 25.4 21.0 99 0.1 CALM 0 0 0 0 1010.3 1010.0 5.6
30/07:00am 21.0 25.1 20.8 99 0.1 CALM 0 0 0 0 1009.9 1009.6 5.6
30/06:30am 20.9 25.0 20.7 99 0.1 CALM 0 0 0 0 1009.8 1009.5 5.6
30/06:00am 21.0 24.3 20.8 99 0.1 NNE 4 7 2 4 1009.4 1009.1 5.6
30/05:30am 21.0 25.1 20.8 99 0.1 CALM 0 0 0 0 1010.2 1009.9 5.6
30/05:00am 21.0 24.0 20.8 99 0.1 ENE 6 11 3 6 1009.8 1009.5 5.6
30/04:30am 21.0 25.1 20.8 99 0.1 CALM 0 0 0 0 1010.6 1010.3 5.6
30/04:00am 21.0 25.1 20.8 99 0.1 CALM 0 0 0 0 1010.7 1010.4 5.6
30/03:30am 21.2 24.3 21.0 99 0.1 NNW 6 7 3 4 1011.7 1011.4 5.2
30/03:00am 21.4 23.6 21.2 99 0.1 N 11 13 6 7 1011.8 1011.5 5.0
30/02:30am 21.4 25.7 21.1 98 0.2 CALM 0 0 0 0 1011.4 1011.1 5.0
30/02:00am 21.6 24.7 21.4 99 0.1 ESE 7 11 4 6 1011.5 1011.2 5.0
30/01:30am 21.7 24.2 21.0 96 0.5 WSW 9 13 5 7 1012.4 1012.1 5.0
30/01:00am 21.2 23.7 21.0 99 0.1 WSW 9 15 5 8 1012.9 1012.6 5.0
30/12:30am 21.4 25.3 21.2 99 0.1 NNW 2 6 1 3 1013.3 1012.9 5.0
30/12:00am 21.4 25.0 21.2 99 0.1 SSE 4 7 2 4 1013.5 1013.1 5.0
 
Date/Time
EDT
Temp
°C
App
Temp
°C
Dew
Point
°C
Rel
Hum
%
Delta-T
°C
Wind Press
QNH
hPa
Press
MSL
hPa
Rain since
9am
mm
Dir  Spd
km/h
Gust
km/h
Spd
kts
Gust
kts
29/11:30pm 21.3 25.6 21.1 99 0.1 CALM 0 0 0 0 1013.5 1013.1 5.0
29/11:00pm 21.5 25.5 21.3 99 0.1 SSW 2 7 1 4 1013.7 1013.3 5.0
29/10:30pm 21.7 25.4 21.5 99 0.1 S 4 11 2 6 1014.1 1013.7 5.0
29/10:00pm 21.8 25.1 21.5 98 0.2 NNW 6 7 3 4 1015.1 1014.8 4.8
29/09:30pm 22.0 25.3 21.5 97 0.3 N 6 9 3 5 1015.2 1014.9 4.8
29/09:00pm 22.5 25.4 21.7 95 0.5 N 9 13 5 7 1015.3 1015.0 4.6
29/08:30pm 22.4 24.7 21.4 94 0.7 NW 11 17 6 9 1015.1 1014.8 4.2
29/08:00pm 22.1 25.2 21.4 96 0.5 NW 7 9 4 5 1014.2 1013.8 4.2
29/07:30pm 22.2 25.9 21.4 95 0.5 SW 4 9 2 5 1013.3 1012.9 4.0
29/07:00pm 22.3 26.0 21.5 95 0.5 SW 4 9 2 5 1012.8 1012.5 4.0
29/06:30pm 22.5 25.0 21.7 95 0.5 SSE 11 17 6 9 1012.6 1012.3 4.0
29/06:00pm 22.8 26.1 21.4 92 0.9 NNE 6 11 3 6 1013.1 1012.7 3.2
29/05:53pm 22.6 25.6 20.9 90 1.1 S 6 9 3 5 1013.2 1012.8 3.0
29/05:42pm 22.5 24.1 20.8 90 1.1 WSW 13 20 7 11 1013.1 1012.7 2.8
29/05:41pm 22.5 24.1 20.8 90 1.1 WSW 13 20 7 11 1013.1 1012.7 2.8
29/05:30pm 22.4 23.4 20.3 88 1.4 WSW 15 24 8 13 1012.8 1012.5 2.0
29/05:27pm 22.5 23.5 20.2 87 1.5 W 15 24 8 13 1012.7 1012.4 1.8
29/05:26pm 22.4 23.7 20.1 87 1.5 W 13 24 7 13 1012.7 1012.4 1.8
29/05:18pm 22.6 23.1 20.1 86 1.6 WNW 17 28 9 15 1012.6 1012.3 1.2
29/05:00pm 22.8 23.1 20.3 86 1.6 S 19 39 10 21 1010.6 1010.3 0.2
29/04:30pm 23.4 21.8 19.1 77 2.7 S 26 50 14 27 1010.7 1010.4 0.0
29/04:12pm 28.5 27.3 17.4 51 7.0 SSW 20 46 11 25 1010.6 1010.3 0.0
29/04:00pm 30.5 31.2 20.4 54 6.7 SE 17 24 9 13 1009.5 1009.2 0.0
29/03:54pm 30.6 31.3 20.5 54 6.7 SE 17 24 9 13 1009.3 1009.0 0.0
29/03:30pm 32.0 31.3 19.6 47 8.2 SE 22 32 12 17 1008.9 1008.6 0.0
29/03:00pm 34.9 33.4 10.7 23 14.2 ENE 9 13 5 7 1008.7 1008.4 0.0
29/02:30pm 36.1 32.8 4.4 14 16.9 ESE 11 19 6 10 1009.1 1008.8 0.0
29/02:00pm 36.8 35.2 7.8 17 16.4 SW 6 13 3 7 1009.4 1009.1 0.0
29/01:30pm 36.0 33.8 8.0 18 15.8 N 9 20 5 11 1010.0 1009.7 0.0
29/01:00pm 35.2 33.6 11.6 24 14.0 WNW 11 28 6 15 1010.4 1010.1 0.0
29/12:30pm 34.6 33.6 13.4 27 12.9 WNW 11 22 6 12 1010.8 1010.5 0.0
29/12:00pm 33.9 32.7 12.8 28 12.7 NNW 11 20 6 11 1011.2 1010.9 0.0
29/11:30am 32.8 32.4 15.3 34 10.9 NNW 11 17 6 9 1011.7 1011.4 0.0
29/11:00am 32.5 34.7 20.4 49 8.1 NNE 9 19 5 10 1011.9 1011.6 0.0
29/10:30am 30.3 34.0 22.5 63 5.3 NE 7 15 4 8 1012.4 1012.1 0.0
29/10:00am 29.4 33.6 23.1 69 4.3 NE 6 9 3 5 1012.5 1012.2 0.0
29/09:30am 27.6 32.0 22.8 75 3.3 NNE 4 11 2 6 1012.8 1012.5 0.0
29/09:00am 26.2 31.2 22.5 80 2.5 CALM 0 0 0 0 1012.7 1012.4 0.0
29/08:30am 25.8 30.0 22.5 82 2.2 ENE 4 9 2 5 1012.7 1012.4 0.0
29/08:00am 24.3 29.2 22.4 89 1.3 CALM 0 0 0 0 1012.4 1012.1 0.0
29/07:30am 22.3 27.1 22.1 99 0.1 CALM 0 0 0 0 1012.4 1012.1 0.0
29/07:00am 20.6 24.5 20.4 99 0.1 CALM 0 0 0 0 1012.0 1011.7 0.0
29/06:30am 20.2 23.2 20.0 99 0.1 SW 4 6 2 3 1011.6 1011.3 0.0
29/06:00am 20.3 22.9 20.1 99 0.1 SW 6 7 3 4 1011.3 1011.0 0.0
29/05:30am 20.2 23.9 20.0 99 0.1 CALM 0 0 0 0 1010.7 1010.4 0.0
29/05:00am 21.1 25.3 20.9 99 0.1 CALM 0 0 0 0 1010.6 1010.3 0.0
29/04:30am 21.9 25.3 21.7 99 0.1 SW 6 7 3 4 1010.5 1010.2 0.0
29/04:00am 22.0 25.5 21.8 99 0.1 S 6 7 3 4 1010.5 1010.2 0.0
29/03:30am 22.3 25.9 22.0 98 0.2 SSE 6 9 3 5 1010.4 1010.1 0.0
29/03:00am 22.6 26.6 22.1 97 0.3 SSE 4 7 2 4 1010.5 1010.2 0.0
29/02:30am 22.3 26.4 21.5 95 0.5 S 2 7 1 4 1010.5 1010.2 0.0
29/02:00am 22.8 26.3 21.8 94 0.7 S 6 9 3 5 1010.5 1010.2 0.0
29/01:30am 23.4 27.1 22.2 93 0.8 S 6 11 3 6 1010.6 1010.3 0.0
29/01:00am 23.5 26.5 21.9 91 1.1 SSE 9 11 5 6 1010.7 1010.4 0.0
29/12:30am 24.0 27.2 21.7 87 1.5 SSE 7 11 4 6 1011.1 1010.8 0.0
29/12:00am 24.7 28.5 21.6 83 2.1 SSE 4 7 2 4 1011.3 1011.0 0.0
 
Date/Time
EDT
Temp
°C
App
Temp
°C
Dew
Point
°C
Rel
Hum
%
Delta-T
°C
Wind Press
QNH
hPa
Press
MSL
hPa
Rain since
9am
mm
Dir  Spd
km/h
Gust
km/h
Spd
kts
Gust
kts
28/11:30pm 25.0 27.8 21.5 81 2.3 SE 9 13 5 7 1011.3 1011.0 0.0
28/11:00pm 25.4 28.5 21.5 79 2.6 SSE 7 11 4 6 1011.4 1011.1 0.0
28/10:30pm 25.7 28.4 21.4 77 2.9 SE 9 13 5 7 1011.2 1010.9 0.0
28/10:00pm 26.2 28.5 21.4 75 3.2 SE 11 19 6 10 1011.2 1010.9 0.0
28/09:30pm 26.6 29.1 21.1 72 3.6 ESE 9 13 5 7 1010.8 1010.5 0.0
28/09:00pm 27.3 29.8 21.1 69 4.1 E 9 19 5 10 1010.8 1010.5 0.0
28/08:30pm 28.1 30.3 21.1 65 4.7 E 11 15 6 8 1010.4 1010.1 0.0
28/08:00pm 29.0 32.4 21.7 64 4.9 E 6 9 3 5 1010.1 1009.8 0.0
28/07:30pm 29.8 32.6 21.5 61 5.6 ESE 9 13 5 7 1009.6 1009.3 0.0
28/07:00pm 29.9 32.2 21.3 60 5.8 E 11 15 6 8 1009.1 1008.8 0.0
28/06:30pm 30.2 32.2 20.7 56 6.3 E 11 20 6 11 1009.4 1009.1 0.0
28/06:00pm 30.8 31.2 19.8 52 7.3 E 17 24 9 13 1009.2 1008.9 0.0
28/05:30pm 31.5 30.7 17.0 41 9.2 E 17 24 9 13 1009.0 1008.7 0.0
28/05:00pm 33.7 31.4 14.7 32 11.8 ENE 20 28 11 15 1008.8 1008.5 0.0
28/04:30pm 34.5 33.6 14.9 31 12.2 ESE 13 22 7 12 1009.0 1008.7 0.0
28/04:00pm 34.2 32.6 16.5 34 11.3 E 20 33 11 18 1009.2 1008.9 0.0
28/03:30pm 34.7 33.2 11.8 25 13.6 NE 11 17 6 9 1009.9 1009.6 0.0
28/03:00pm 34.3 32.6 13.7 29 12.6 NNE 15 22 8 12 1010.3 1010.0 0.0
28/02:30pm 34.0 33.4 13.5 29 12.5 E 9 15 5 8 1010.7 1010.4 0.0
28/02:00pm 32.6 32.6 15.1 34 10.9 S 9 20 5 11 1011.2 1010.9 0.0
28/01:30pm 32.9 33.5 16.7 38 10.3 NE 9 17 5 9 1011.5 1011.2 0.0
28/01:00pm 32.2 33.2 17.7 42 9.3 NNE 9 15 5 8 1011.8 1011.5 0.0
28/12:30pm 31.2 32.5 18.5 46 8.2 NE 9 17 5 9 1012.4 1012.1 0.0
28/12:00pm 30.6 32.5 19.0 50 7.6 ENE 7 15 4 8 1012.8 1012.5 0.0
28/11:30am 29.7 31.6 19.7 55 6.6 NNE 9 15 5 8 1013.3 1012.9 0.0
28/11:00am 29.2 32.1 21.7 64 5.0 E 9 13 5 7 1013.6 1013.2 0.0
28/10:30am 28.0 31.2 21.3 67 4.5 NE 6 13 3 7 1014.0 1013.6 0.0
28/10:00am 27.1 30.5 21.6 72 3.7 ENE 6 9 3 5 1014.3 1013.9 0.0
28/09:30am 26.8 30.2 21.6 73 3.5 N 6 9 3 5 1014.2 1013.8 0.0
28/09:00am 25.3 29.5 21.8 81 2.3 NE 2 7 1 4 1014.1 1013.7 0.2
28/08:30am 24.6 27.6 21.9 85 1.8 ESE 9 13 5 7 1014.0 1013.6 0.2
28/08:00am 23.1 28.0 23.1 100 0.0 S 2 7 1 4 1013.9 1013.5 0.2
28/07:30am 20.8 24.8 20.6 99 0.1 CALM 0 0 0 0 1013.7 1013.3 0.2
28/07:00am 19.9 23.5 19.7 99 0.1 CALM 0 0 0 0 1013.5 1013.1 0.2
28/06:30am 19.2 21.3 19.0 99 0.1 SW 6 9 3 5 1012.9 1012.6 0.2
28/06:00am 19.7 23.2 19.5 99 0.1 CALM 0 0 0 0 1012.4 1012.1 0.2
28/05:30am 19.5 22.9 19.3 99 0.1 CALM 0 0 0 0 1012.3 1012.0 0.2
28/05:00am 20.1 23.8 19.9 99 0.1 CALM 0 0 0 0 1012.1 1011.8 0.2
28/04:30am 20.6 23.8 20.4 99 0.1 S 4 9 2 5 1011.8 1011.5 0.2
28/04:00am 20.7 24.7 20.5 99 0.1 CALM 0 0 0 0 1012.0 1011.7 0.2
28/03:30am 20.9 24.7 20.2 96 0.5 CALM 0 0 0 0 1012.2 1011.9 0.2
28/03:00am 21.6 25.3 20.8 95 0.5 SW 2 9 1 5 1012.4 1012.1 0.2
28/02:30am 21.9 26.1 20.9 94 0.7 CALM 0 0 0 0 1012.7 1012.4 0.2
28/02:00am 22.4 26.3 21.2 93 0.8 S 2 7 1 4 1012.9 1012.6 0.2
28/01:30am 22.6 25.9 21.4 93 0.8 SSW 6 9 3 5 1013.4 1013.0 0.2
28/01:00am 22.5 25.7 21.3 93 0.8 SSW 6 7 3 4 1013.9 1013.5 0.2
28/12:30am 23.0 26.1 21.5 91 1.0 SSE 7 11 4 6 1013.9 1013.5 0.2
28/12:00am 23.3 27.1 21.6 90 1.1 S 4 7 2 4 1014.0 1013.6 0.2
 
Date/Time
EDT
Temp
°C
App
Temp
°C
Dew
Point
°C
Rel
Hum
%
Delta-T
°C
Wind Press
QNH
hPa
Press
MSL
hPa
Rain since
9am
mm
Dir  Spd
km/h
Gust
km/h
Spd
kts
Gust
kts
27/11:30pm 23.4 26.8 21.7 90 1.1 SSE 6 9 3 5 1014.3 1013.9 0.2
27/11:00pm 23.9 27.3 22.0 89 1.3 SE 7 9 4 5 1014.1 1013.7 0.2

Other formats

Comma delimited format used in spreadsheet applications
http://www.bom.gov.au/fwo/IDN60801/IDN60801.95771.axf

JavaScript Object Notation format (JSON) in row-major order
http://www.bom.gov.au/fwo/IDN60801/IDN60801.95771.json

Data quality

Most of these data are generated automatically and are frequently updated. Quality checks on data are not normally performed. It is possible for incorrect values to appear. Refer to information at About Latest Weather Observations and please check the disclaimer before using these data.